Time;durP1;ratioP1;P1;durP2;ratioP2;P2;SDS_P1;SDS_P2;PMS_P1;PMS_P2;Temp;Humidity;BMP_temperature;BMP_pressure;BME280_temperature;BME280_humidity;BME280_pressure;Samples;Min_cycle;Max_cycle;Signal;HPM_P1;HPM_P2
2024/03/01 00:00:46;;;;;;;107.75;52.92;;;;;;;0.71;100.00;94922.72;2098841;28;20040;-56
2024/03/01 00:01:47;;;;;;;109.00;52.95;;;;;;;0.70;100.00;94933.84;2098517;28;20048;-56
2024/03/01 00:02:49;;;;;;;123.93;55.28;;;;;;;0.71;100.00;94920.16;2098301;28;20411;-56
2024/03/01 00:03:50;;;;;;;114.82;53.05;;;;;;;0.72;100.00;94929.50;2097961;28;20047;-56
2024/03/01 00:04:51;;;;;;;120.68;53.55;;;;;;;0.72;100.00;94926.94;2097716;28;20495;-56
2024/03/01 00:05:52;;;;;;;118.45;54.13;;;;;;;0.71;100.00;94919.34;2098149;28;20041;-57
2024/03/01 00:06:54;;;;;;;120.07;54.95;;;;;;;0.72;100.00;94918.44;2098543;28;20043;-56
2024/03/01 00:07:57;;;;;;;117.95;55.88;;;;;;;0.70;100.00;94921.06;2098736;28;20032;-57
2024/03/01 00:08:58;;;;;;;120.85;54.00;;;;;;;0.69;100.00;94915.97;2098388;28;20043;-56
2024/03/01 00:09:59;;;;;;;111.82;52.85;;;;;;;0.70;100.00;94913.38;2097755;28;20040;-56
2024/03/01 00:11:00;;;;;;;120.15;58.22;;;;;;;0.75;100.00;94920.91;2098235;28;20495;-56
2024/03/01 00:12:01;;;;;;;113.65;54.40;;;;;;;0.75;100.00;94913.25;2089249;28;20037;-57
2024/03/01 00:13:02;;;;;;;114.30;54.45;;;;;;;0.72;100.00;94914.16;2089222;28;20041;-56
2024/03/01 00:14:03;;;;;;;124.15;54.67;;;;;;;0.71;100.00;94915.06;2089136;28;20049;-57
2024/03/01 00:15:05;;;;;;;113.68;53.47;;;;;;;0.72;100.00;94913.34;2089139;28;20432;-56
2024/03/01 00:16:06;;;;;;;111.15;51.88;;;;;;;0.72;100.00;94911.59;2097581;28;20464;-56
2024/03/01 00:17:07;;;;;;;116.63;51.65;;;;;;;0.73;100.00;94915.03;2097442;28;20055;-56
2024/03/01 00:18:08;;;;;;;116.35;54.35;;;;;;;0.76;100.00;94909.84;2098391;28;20040;-56
2024/03/01 00:19:09;;;;;;;117.32;56.13;;;;;;;0.76;100.00;94917.50;2098630;28;20039;-56
2024/03/01 00:20:12;;;;;;;119.00;54.20;;;;;;;0.77;100.00;94921.72;2097570;28;20047;-56
2024/03/01 00:21:16;;;;;;;115.72;53.13;;;;;;;0.76;100.00;94915.78;2097741;28;20420;-56
2024/03/01 00:22:18;;;;;;;121.60;53.80;;;;;;;0.74;100.00;94914.97;2097867;28;20431;-56
2024/03/01 00:23:19;;;;;;;107.80;52.95;;;;;;;0.73;100.00;94913.31;2097892;28;20047;-57
2024/03/01 00:24:20;;;;;;;116.07;51.83;;;;;;;0.73;100.00;94907.34;2098220;28;20507;-57
2024/03/01 00:25:21;;;;;;;116.68;54.58;;;;;;;0.73;100.00;94899.69;2089339;28;20048;-57
2024/03/01 00:26:22;;;;;;;121.18;55.85;;;;;;;0.71;100.00;94904.84;2089809;28;20049;-57
2024/03/01 00:27:23;;;;;;;137.77;58.10;;;;;;;0.74;100.00;94907.31;2098444;28;20404;-57
2024/03/01 00:28:24;;;;;;;132.35;57.97;;;;;;;0.73;100.00;94902.25;2097810;28;20059;-56
2024/03/01 00:29:26;;;;;;;154.13;63.78;;;;;;;0.74;100.00;94903.91;2098412;28;20035;-56
2024/03/01 00:30:27;;;;;;;141.93;61.25;;;;;;;0.76;100.00;94891.94;2089291;28;20500;-57
2024/03/01 00:31:29;;;;;;;150.40;66.05;;;;;;;0.77;100.00;94891.88;2088919;28;20056;-57
2024/03/01 00:32:32;;;;;;;152.93;63.80;;;;;;;0.78;100.00;94901.25;2097789;28;20056;-56
2024/03/01 00:33:34;;;;;;;148.73;61.00;;;;;;;0.80;100.00;94898.63;2098332;28;20029;-56
2024/03/01 00:34:35;;;;;;;147.68;62.75;;;;;;;0.84;100.00;94895.97;2097702;28;20056;-56
2024/03/01 00:35:36;;;;;;;141.65;61.70;;;;;;;0.87;100.00;94897.59;2098262;28;20055;-56
2024/03/01 00:36:37;;;;;;;124.22;54.15;;;;;;;0.87;100.00;94897.59;2098538;28;20396;-57
2024/03/01 00:37:38;;;;;;;125.25;55.83;;;;;;;0.84;100.00;94893.41;2098089;28;20044;-56
2024/03/01 00:38:39;;;;;;;138.60;59.92;;;;;;;0.80;100.00;94902.06;2098361;28;20045;-56
2024/03/01 00:39:40;;;;;;;119.78;56.00;;;;;;;0.76;100.00;94895.31;2098144;28;20051;-56
2024/03/01 00:40:41;;;;;;;124.35;55.03;;;;;;;0.74;100.00;94902.19;2097628;28;20052;-56
2024/03/01 00:41:43;;;;;;;125.63;57.70;;;;;;;0.74;100.00;94903.91;2097399;28;20048;-57
2024/03/01 00:42:44;;;;;;;136.23;57.72;;;;;;;0.71;100.00;94902.28;2098053;28;20055;-57
2024/03/01 00:43:45;;;;;;;131.07;58.63;;;;;;;0.74;100.00;94909.03;2098413;28;20071;-56
2024/03/01 00:44:46;;;;;;;121.78;55.92;;;;;;;0.75;100.00;94918.34;2098416;28;20135;-56
2024/03/01 00:45:47;;;;;;;127.15;56.80;;;;;;;0.74;100.00;94914.13;2098507;28;20408;-56
2024/03/01 00:46:48;;;;;;;114.78;50.95;;;;;;;0.70;100.00;94910.84;2098470;28;20036;-57
2024/03/01 00:47:50;;;;;;;118.57;52.47;;;;;;;0.72;100.00;94903.09;2097888;28;20082;-57
2024/03/01 00:48:53;;;;;;;114.75;53.42;;;;;;;0.71;100.00;94901.44;2097064;28;20480;-56
2024/03/01 00:49:54;;;;;;;116.00;52.97;;;;;;;0.73;100.00;94904.81;2098298;28;20036;-56
2024/03/01 00:50:56;;;;;;;120.32;54.72;;;;;;;0.76;100.00;94899.59;2097734;28;20051;-56
2024/03/01 00:51:57;;;;;;;117.05;52.90;;;;;;;0.77;100.00;94903.81;2098312;28;20036;-57
2024/03/01 00:52:58;;;;;;;135.40;56.55;;;;;;;0.78;100.00;94903.81;2098419;28;20396;-56
2024/03/01 00:53:59;;;;;;;139.48;56.65;;;;;;;0.78;100.00;94908.91;2098340;28;20119;-57
2024/03/01 00:55:00;;;;;;;136.10;56.60;;;;;;;0.77;100.00;94908.94;2098544;28;20036;-57
2024/03/01 00:56:02;;;;;;;134.10;56.20;;;;;;;0.78;100.00;94905.53;2098404;28;20036;-56
2024/03/01 00:57:03;;;;;;;138.93;57.08;;;;;;;0.79;100.00;94907.19;2098221;28;20051;-56
2024/03/01 00:58:05;;;;;;;128.85;53.70;;;;;;;0.79;100.00;94900.34;2098463;28;20036;-57
2024/03/01 00:59:06;;;;;;;128.18;54.28;;;;;;;0.78;100.00;94908.09;2097936;28;20044;-56
2024/03/01 01:00:08;;;;;;;118.07;50.55;;;;;;;0.80;100.00;94901.19;2098223;28;20048;-57
2024/03/01 01:01:10;;;;;;;120.72;53.67;;;;;;;0.80;100.00;94901.19;2097558;28;20060;-57
2024/03/01 01:02:11;;;;;;;126.88;55.08;;;;;;;0.80;100.00;94898.63;2097340;28;20052;-57
2024/03/01 01:03:12;;;;;;;130.07;52.63;;;;;;;0.80;100.00;94894.38;2098189;28;20032;-57
2024/03/01 01:04:13;;;;;;;121.32;54.60;;;;;;;0.77;100.00;94902.09;2097655;28;20079;-57
2024/03/01 01:05:15;;;;;;;137.95;56.22;;;;;;;0.77;100.00;94897.00;2098251;28;20483;-57
2024/03/01 01:06:16;;;;;;;134.82;55.10;;;;;;;0.73;100.00;94897.97;2098022;28;20061;-57
2024/03/01 01:07:17;;;;;;;145.48;57.85;;;;;;;0.69;100.00;94900.63;2098439;28;20039;-57
2024/03/01 01:08:18;;;;;;;126.85;53.90;;;;;;;0.72;100.00;94888.59;2098366;28;20040;-57
2024/03/01 01:09:19;;;;;;;138.68;56.80;;;;;;;0.72;100.00;94890.34;2097644;28;20049;-56
2024/03/01 01:10:22;;;;;;;151.35;57.85;;;;;;;0.74;100.00;94886.03;2097881;28;20052;-57
2024/03/01 01:11:23;;;;;;;127.60;54.35;;;;;;;0.73;100.00;94884.38;2097721;28;20049;-57
2024/03/01 01:12:24;;;;;;;121.93;54.10;;;;;;;0.74;100.00;94883.47;2098338;28;20515;-57
2024/03/01 01:13:26;;;;;;;134.10;57.53;;;;;;;0.74;100.00;94891.13;2097670;28;20077;-57
2024/03/01 01:14:27;;;;;;;130.82;54.53;;;;;;;0.73;100.00;94887.75;2097886;28;20053;-57
2024/03/01 01:15:29;;;;;;;136.70;56.28;;;;;;;0.74;100.00;94886.84;2097942;28;20052;-56
2024/03/01 01:16:30;;;;;;;163.65;62.22;;;;;;;0.75;100.00;94883.44;2097622;28;20052;-57
2024/03/01 01:17:31;;;;;;;144.52;59.05;;;;;;;0.74;100.00;94881.75;2097527;28;20489;-56
2024/03/01 01:18:32;;;;;;;156.90;59.10;;;;;;;0.74;100.00;94883.47;2098272;28;20045;-56
2024/03/01 01:19:33;;;;;;;144.60;58.20;;;;;;;0.73;100.00;94881.81;2097448;28;20053;-57
2024/03/01 01:20:35;;;;;;;152.40;61.42;;;;;;;0.71;100.00;94875.88;2097582;28;20040;-56
2024/03/01 01:21:36;;;;;;;181.65;69.60;;;;;;;0.69;100.00;94875.91;2099258;28;20044;-57
2024/03/01 01:22:37;;;;;;;160.32;64.47;;;;;;;0.69;100.00;94870.81;2099254;28;20059;-57
2024/03/01 01:23:38;;;;;;;179.23;66.95;;;;;;;0.68;100.00;94869.16;2099503;28;20404;-57
2024/03/01 01:24:39;;;;;;;158.95;60.90;;;;;;;0.68;100.00;94876.81;2099723;28;20044;-56
2024/03/01 01:25:42;;;;;;;124.20;53.47;;;;;;;0.66;100.00;94883.66;2099859;28;20044;-56
2024/03/01 01:26:43;;;;;;;126.45;52.85;;;;;;;0.63;100.00;94884.59;2090524;28;20092;-56
2024/03/01 01:27:44;;;;;;;122.70;50.92;;;;;;;0.60;100.00;94877.00;2091216;28;20551;-56
2024/03/01 01:28:45;;;;;;;117.78;52.00;;;;;;;0.59;100.00;94879.63;2099973;28;20033;-57
2024/03/01 01:29:46;;;;;;;128.80;54.47;;;;;;;0.55;100.00;94873.72;2099611;28;20045;-56
2024/03/01 01:30:47;;;;;;;140.00;55.67;;;;;;;0.53;100.00;94874.66;2099190;28;20052;-57
2024/03/01 01:31:48;;;;;;;130.50;53.85;;;;;;;0.49;100.00;94873.91;2099336;28;20060;-56
2024/03/01 01:32:49;;;;;;;131.43;54.65;;;;;;;0.42;100.00;94865.53;2099822;28;20048;-57
2024/03/01 01:33:51;;;;;;;117.50;51.40;;;;;;;0.40;100.00;94874.97;2091114;28;20517;-56
2024/03/01 01:34:52;;;;;;;122.50;54.42;;;;;;;0.39;100.00;94870.72;2091368;28;20039;-56
2024/03/01 01:35:53;;;;;;;126.88;52.67;;;;;;;0.36;100.00;94872.53;2099876;28;20047;-56
2024/03/01 01:36:54;;;;;;;146.63;59.13;;;;;;;0.35;100.00;94870.88;2099083;28;20048;-56
2024/03/01 01:37:57;;;;;;;141.07;57.90;;;;;;;0.36;100.00;94872.53;2099636;28;20032;-56
2024/03/01 01:38:58;;;;;;;181.40;64.03;;;;;;;0.36;100.00;94875.94;2098876;28;20040;-56
2024/03/01 01:39:59;;;;;;;217.77;70.53;;;;;;;0.37;100.00;94880.16;2099046;28;20055;-56
2024/03/01 01:41:00;;;;;;;260.90;73.38;;;;;;;0.36;100.00;94875.09;2099539;28;20044;-56
2024/03/01 01:42:01;;;;;;;205.55;69.15;;;;;;;0.35;100.00;94878.53;2099315;28;20571;-56
2024/03/01 01:43:03;;;;;;;170.25;62.05;;;;;;;0.35;100.00;94870.88;2099503;28;20098;-56
2024/03/01 01:44:04;;;;;;;148.32;56.63;;;;;;;0.34;100.00;94869.19;2098966;28;20052;-57
2024/03/01 01:45:06;;;;;;;146.95;58.90;;;;;;;0.36;100.00;94869.97;2099921;28;20476;-56
2024/03/01 01:46:07;;;;;;;407.25;95.78;;;;;;;0.35;100.00;94870.88;2090443;28;20053;-56
2024/03/01 01:47:08;;;;;;;216.30;73.93;;;;;;;0.35;100.00;94868.31;2082226;28;20469;-57
2024/03/01 01:48:09;;;;;;;439.88;90.00;;;;;;;0.35;100.00;94866.59;2082710;28;20425;-56
2024/03/01 01:49:10;;;;;;;284.35;78.43;;;;;;;0.36;100.00;94863.16;2089629;28;20490;-56
2024/03/01 01:50:11;;;;;;;536.75;102.35;;;;;;;0.41;100.00;94865.59;2090132;28;20059;-56
2024/03/01 01:51:14;;;;;;;472.63;95.65;;;;;;;0.45;100.00;94862.06;2090941;28;20037;-56
2024/03/01 01:52:15;;;;;;;470.85;100.80;;;;;;;0.47;100.00;94862.03;2098948;28;20041;-56
2024/03/01 01:53:16;;;;;;;432.92;99.05;;;;;;;0.46;100.00;94863.78;2090041;28;20468;-56
2024/03/01 01:54:17;;;;;;;383.65;94.20;;;;;;;0.46;100.00;94861.22;2082300;28;20038;-56
2024/03/01 01:55:18;;;;;;;464.38;95.93;;;;;;;0.44;100.00;94861.25;2082368;28;20041;-56
2024/03/01 01:56:19;;;;;;;432.55;100.93;;;;;;;0.44;100.00;94858.69;2081857;28;20049;-56
2024/03/01 01:57:20;;;;;;;548.75;104.70;;;;;;;0.42;100.00;94852.78;2090254;28;20053;-56
2024/03/01 01:58:22;;;;;;;741.92;128.82;;;;;;;0.43;100.00;94854.47;2090968;28;20064;-57
2024/03/01 01:59:23;;;;;;;639.90;119.88;;;;;;;0.46;100.00;94855.28;2090008;28;20049;-56
2024/03/01 02:00:24;;;;;;;369.55;90.90;;;;;;;0.47;100.00;94854.38;2099598;28;20476;-57
2024/03/01 02:01:25;;;;;;;253.00;80.13;;;;;;;0.47;100.00;94850.09;2098808;28;20056;-56
2024/03/01 02:02:27;;;;;;;398.45;95.47;;;;;;;0.48;100.00;94853.50;2089887;28;20049;-56
2024/03/01 02:03:28;;;;;;;428.92;96.05;;;;;;;0.48;100.00;94858.59;2089856;28;20053;-56
2024/03/01 02:04:30;;;;;;;400.77;94.45;;;;;;;0.46;100.00;94852.72;2082775;28;20497;-57
2024/03/01 02:05:31;;;;;;;653.10;117.43;;;;;;;0.47;100.00;94851.81;2089932;28;20064;-57
2024/03/01 02:06:32;;;;;;;758.08;124.07;;;;;;;0.47;100.00;94851.81;2098762;28;20056;-57
2024/03/01 02:07:34;;;;;;;1026.25;169.02;;;;;;;0.43;100.00;94846.81;2098944;28;20044;-56
2024/03/01 02:08:35;;;;;;;617.60;115.10;;;;;;;0.41;100.00;94842.63;2082532;28;20038;-57
2024/03/01 02:09:39;;;;;;;494.25;101.32;;;;;;;0.45;100.00;94844.19;2082452;28;20037;-57
2024/03/01 02:10:40;;;;;;;342.75;83.97;;;;;;;0.50;100.00;94844.91;2099502;28;20052;-57
2024/03/01 02:11:41;;;;;;;339.27;80.97;;;;;;;0.50;100.00;94842.34;2090619;28;20424;-57
2024/03/01 02:12:56;;;;;;;352.30;81.97;;;;;;;0.56;100.00;94841.34;2089963;28;20064;-56
2024/03/01 02:13:57;;;;;;;427.60;97.18;;;;;;;0.58;100.00;94839.59;2098831;28;20411;-58
2024/03/01 02:14:58;;;;;;;724.25;128.80;;;;;;;0.59;100.00;94837.03;2098732;28;20045;-57
2024/03/01 02:15:59;;;;;;;490.10;95.93;;;;;;;0.62;100.00;94831.81;2098878;28;20038;-56
2024/03/01 02:17:00;;;;;;;703.28;116.32;;;;;;;0.63;100.00;94830.94;2099324;28;20036;-56
2024/03/01 02:18:02;;;;;;;548.65;99.20;;;;;;;0.61;100.00;94813.97;2098806;28;20067;-56
2024/03/01 02:19:04;;;;;;;747.17;128.55;;;;;;;0.64;100.00;94832.63;2098787;28;20048;-56
2024/03/01 02:20:06;;;;;;;579.92;102.78;;;;;;;0.68;100.00;94825.72;2090160;28;20044;-56
2024/03/01 02:21:10;;;;;;;762.95;136.32;;;;;;;0.69;100.00;94823.97;2090375;28;20048;-56
2024/03/01 02:22:20;;;;;;;497.95;104.50;;;;;;;0.70;100.00;94823.94;2098100;28;20052;-56
2024/03/01 02:23:21;;;;;;;545.35;100.32;;;;;;;0.65;100.00;94826.63;2090486;28;20041;-56
2024/03/01 02:24:23;;;;;;;568.10;105.18;;;;;;;0.60;100.00;94818.25;2089964;28;20048;-56
2024/03/01 02:25:24;;;;;;;631.45;108.80;;;;;;;0.58;100.00;94824.28;2082407;28;20046;-56
2024/03/01 02:26:25;;;;;;;542.70;104.82;;;;;;;0.58;100.00;94820.00;2082155;28;20053;-56
2024/03/01 02:27:26;;;;;;;538.78;99.05;;;;;;;0.62;100.00;94813.94;2098970;28;20063;-56
2024/03/01 02:28:27;;;;;;;517.53;96.55;;;;;;;0.59;100.00;94808.91;2098956;28;20052;-56
2024/03/01 02:29:28;;;;;;;413.83;83.60;;;;;;;0.60;100.00;94813.13;2099315;28;20036;-56
2024/03/01 02:30:29;;;;;;;488.70;87.18;;;;;;;0.61;100.00;94825.00;2099422;28;20075;-56
2024/03/01 02:31:30;;;;;;;560.22;99.53;;;;;;;0.61;100.00;94813.97;2098644;28;20052;-56
2024/03/01 02:32:32;;;;;;;557.70;97.85;;;;;;;0.63;100.00;94817.31;2098101;28;20075;-56
2024/03/01 02:33:33;;;;;;;483.08;93.85;;;;;;;0.62;100.00;94820.78;2098905;28;20043;-56
2024/03/01 02:34:34;;;;;;;561.25;100.63;;;;;;;0.66;100.00;94818.06;2098732;28;20075;-56
2024/03/01 02:35:35;;;;;;;570.55;105.10;;;;;;;0.69;100.00;94827.38;2098961;28;20049;-55
2024/03/01 02:36:36;;;;;;;774.88;126.10;;;;;;;0.70;100.00;94818.84;2098339;28;20056;-56
2024/03/01 02:37:37;;;;;;;556.65;103.00;;;;;;;0.72;100.00;94822.16;2099298;28;20051;-56
2024/03/01 02:38:38;;;;;;;856.40;132.52;;;;;;;0.72;100.00;94822.16;2099008;28;20048;-56
2024/03/01 02:39:39;;;;;;;548.38;105.60;;;;;;;0.78;100.00;94821.19;2099307;28;20465;-56
2024/03/01 02:40:41;;;;;;;530.28;96.40;;;;;;;0.81;100.00;94826.22;2098595;28;20051;-56
2024/03/01 02:41:45;;;;;;;431.40;85.72;;;;;;;0.85;100.00;94815.00;2099163;28;20043;-56
2024/03/01 02:42:47;;;;;;;697.53;112.75;;;;;;;0.83;100.00;94817.63;2099122;28;20063;-56
2024/03/01 02:43:48;;;;;;;687.05;118.57;;;;;;;0.86;100.00;94812.41;2099146;28;20040;-56
2024/03/01 02:44:49;;;;;;;804.85;134.93;;;;;;;0.85;100.00;94808.16;2098874;28;20055;-56
2024/03/01 02:45:50;;;;;;;452.92;97.25;;;;;;;0.84;100.00;94810.78;2099257;28;20074;-56
2024/03/01 02:46:51;;;;;;;443.08;93.55;;;;;;;0.85;100.00;94804.78;2098713;28;20076;-56
2024/03/01 02:47:52;;;;;;;649.13;111.80;;;;;;;0.83;100.00;94804.84;2098470;28;20049;-56
2024/03/01 02:48:53;;;;;;;826.15;136.50;;;;;;;0.90;100.00;94812.31;2098868;28;20388;-56
2024/03/01 02:49:54;;;;;;;736.63;129.50;;;;;;;0.93;100.00;94815.63;2098566;28;20044;-56
2024/03/01 02:50:56;;;;;;;774.35;126.18;;;;;;;0.91;100.00;94814.00;2099409;28;20040;-56
2024/03/01 02:51:57;;;;;;;816.38;139.15;;;;;;;0.96;100.00;94815.53;2098975;28;20040;-56
2024/03/01 02:52:58;;;;;;;967.47;158.90;;;;;;;0.96;100.00;94820.63;2098277;28;20381;-56
2024/03/01 02:53:59;;;;;;;693.50;124.97;;;;;;;0.97;100.00;94824.06;2098694;28;20052;-56
2024/03/01 02:55:01;;;;;;;395.83;96.30;;;;;;;0.98;100.00;94830.84;2098549;28;20045;-55
2024/03/01 02:56:03;;;;;;;527.42;111.68;;;;;;;0.99;100.00;94830.81;2081193;28;20045;-56
2024/03/01 02:57:04;;;;;;;759.83;133.85;;;;;;;1.02;100.00;94837.56;2081882;28;20473;-56
2024/03/01 02:58:06;;;;;;;627.00;116.00;;;;;;;1.06;100.00;94834.00;2098353;28;20408;-56
2024/03/01 02:59:07;;;;;;;588.15;116.28;;;;;;;1.10;100.00;94836.44;2098822;28;20040;-56
2024/03/01 03:00:11;;;;;;;906.50;142.43;;;;;;;1.02;100.00;94845.22;2099252;28;20043;-56
2024/03/01 03:01:12;;;;;;;579.25;113.40;;;;;;;0.97;100.00;94845.34;2099184;28;20069;-57
2024/03/01 03:02:13;;;;;;;812.17;134.02;;;;;;;0.91;100.00;94844.66;2098895;28;20049;-56
2024/03/01 03:03:14;;;;;;;752.72;125.75;;;;;;;0.85;100.00;94854.16;2098928;28;20044;-56
2024/03/01 03:04:15;;;;;;;1008.03;148.55;;;;;;;0.79;100.00;94856.91;2098796;28;20409;-56
2024/03/01 03:05:17;;;;;;;787.90;129.52;;;;;;;0.78;100.00;94862.91;2098669;28;20052;-56
2024/03/01 03:06:18;;;;;;;757.80;126.72;;;;;;;0.80;100.00;94867.97;2098399;28;20064;-56
2024/03/01 03:07:20;;;;;;;557.33;105.60;;;;;;;0.81;100.00;94870.50;2099277;28;20480;-56
2024/03/01 03:08:22;;;;;;;689.33;119.70;;;;;;;0.79;100.00;94879.06;2098371;28;20049;-56
2024/03/01 03:09:23;;;;;;;884.38;137.77;;;;;;;0.77;100.00;94883.38;2090129;28;20639;-56
2024/03/01 03:10:24;;;;;;;592.65;112.60;;;;;;;0.79;100.00;94889.31;2090245;28;20037;-56
2024/03/01 03:11:25;;;;;;;755.67;130.23;;;;;;;0.75;100.00;94890.25;2098384;28;20477;-56
2024/03/01 03:12:26;;;;;;;798.88;119.32;;;;;;;0.74;100.00;94891.13;2098241;28;20044;-56
2024/03/01 03:13:27;;;;;;;905.83;138.05;;;;;;;0.70;100.00;94897.22;2098956;28;20047;-56
2024/03/01 03:14:28;;;;;;;555.05;103.18;;;;;;;0.75;100.00;94905.56;2098746;28;20048;-56
2024/03/01 03:15:30;;;;;;;660.28;114.22;;;;;;;0.77;100.00;94901.28;2098933;28;20044;-56
2024/03/01 03:16:31;;;;;;;719.40;103.00;;;;;;;0.69;100.00;94890.41;2098897;28;20043;-56
2024/03/01 03:17:32;;;;;;;619.67;99.85;;;;;;;0.63;100.00;94899.09;2099059;28;20048;-56
2024/03/01 03:18:33;;;;;;;438.48;72.57;;;;;;;0.60;100.00;94902.56;2098936;28;20040;-56
2024/03/01 03:19:34;;;;;;;887.38;126.13;;;;;;;0.62;100.00;94897.41;2099089;28;20480;-56
2024/03/01 03:20:36;;;;;;;1090.78;152.82;;;;;;;0.56;100.00;94900.97;2098242;28;20499;-56
2024/03/01 03:21:37;;;;;;;827.22;133.20;;;;;;;0.56;100.00;94902.66;2098763;28;20036;-56
2024/03/01 03:22:44;;;;;;;702.88;109.20;;;;;;;0.59;100.00;94903.44;2098484;28;20053;-56
2024/03/01 03:23:45;;;;;;;1194.88;163.85;;;;;;;0.52;100.00;94903.63;2098441;28;20060;-56
2024/03/01 03:24:47;;;;;;;896.28;135.20;;;;;;;0.58;100.00;94906.84;2089074;28;20420;-56
2024/03/01 03:25:48;;;;;;;773.17;128.82;;;;;;;0.62;100.00;94915.31;2089872;28;20051;-56
2024/03/01 03:26:49;;;;;;;1153.07;164.20;;;;;;;0.61;100.00;94909.34;2097975;28;20048;-56
2024/03/01 03:27:50;;;;;;;939.97;144.77;;;;;;;0.64;100.00;94913.53;2098286;28;20158;-56
2024/03/01 03:28:51;;;;;;;921.53;132.77;;;;;;;0.62;100.00;94912.75;2098022;28;20480;-56
2024/03/01 03:29:52;;;;;;;1028.03;137.77;;;;;;;0.59;100.00;94912.84;2098304;28;20033;-56
2024/03/01 03:30:53;;;;;;;928.45;135.88;;;;;;;0.48;100.00;94910.53;2098790;28;20033;-56
2024/03/01 03:31:54;;;;;;;836.88;126.05;;;;;;;0.51;100.00;94910.47;2097895;28;20047;-56
2024/03/01 03:32:56;;;;;;;833.65;131.00;;;;;;;0.49;100.00;94909.66;2098633;28;20357;-56
2024/03/01 03:33:57;;;;;;;440.27;83.93;;;;;;;0.49;100.00;94913.94;2098094;28;20514;-56
2024/03/01 03:34:58;;;;;;;702.80;122.95;;;;;;;0.42;100.00;94921.75;2098047;28;20052;-56
2024/03/01 03:36:00;;;;;;;837.58;141.90;;;;;;;0.44;100.00;94917.44;2098131;28;20056;-56
2024/03/01 03:37:01;;;;;;;621.80;105.85;;;;;;;0.46;100.00;94919.13;2098799;28;20400;-56
2024/03/01 03:38:03;;;;;;;648.10;119.53;;;;;;;0.36;100.00;94915.97;2098509;28;20044;-57
2024/03/01 03:39:06;;;;;;;676.47;116.70;;;;;;;0.34;100.00;94918.53;2098145;28;20055;-56
2024/03/01 03:40:14;;;;;;;848.40;140.30;;;;;;;0.34;100.00;94904.94;2098658;28;20032;-57
2024/03/01 03:41:15;;;;;;;538.67;106.82;;;;;;;0.40;100.00;94908.19;2098329;28;20492;-57
2024/03/01 03:42:16;;;;;;;498.20;105.30;;;;;;;0.39;100.00;94903.94;2098554;28;20047;-56
2024/03/01 03:43:17;;;;;;;795.65;118.53;;;;;;;0.37;100.00;94898.03;2098404;28;20053;-57
2024/03/01 03:44:18;;;;;;;585.50;111.82;;;;;;;0.35;100.00;94899.81;2097451;28;20052;-56
2024/03/01 03:45:20;;;;;;;676.83;113.35;;;;;;;0.34;100.00;94898.09;2098817;28;20037;-56
2024/03/01 03:46:21;;;;;;;774.17;127.95;;;;;;;0.36;100.00;94906.56;2098943;28;20043;-57
2024/03/01 03:47:23;;;;;;;573.22;108.35;;;;;;;0.34;100.00;94912.59;2098083;28;20059;-57
2024/03/01 03:48:24;;;;;;;714.45;121.88;;;;;;;0.36;100.00;94915.97;2098711;28;20456;-57
2024/03/01 03:49:25;;;;;;;683.08;121.15;;;;;;;0.39;100.00;94923.53;2098519;28;20044;-56
2024/03/01 03:50:26;;;;;;;630.05;114.55;;;;;;;0.37;100.00;94926.13;2098814;28;20044;-56
2024/03/01 03:51:28;;;;;;;855.28;126.82;;;;;;;0.27;100.00;94932.34;2098158;28;20052;-57
2024/03/01 03:52:29;;;;;;;1084.65;147.13;;;;;;;0.11;100.00;94916.56;2098757;28;20044;-57
2024/03/01 03:53:30;;;;;;;801.80;125.22;;;;;;;0.05;100.00;94921.78;2098825;28;20464;-56
2024/03/01 03:54:32;;;;;;;886.90;144.32;;;;;;;0.12;100.00;94920.78;2098617;28;20043;-56
2024/03/01 03:55:33;;;;;;;1031.32;155.32;;;;;;;0.16;100.00;94921.53;2098636;28;20055;-56
2024/03/01 03:56:34;;;;;;;679.85;117.97;;;;;;;0.24;100.00;94926.47;2097716;28;20056;-57
2024/03/01 03:57:35;;;;;;;778.97;131.77;;;;;;;0.28;100.00;94920.41;2098488;28;20044;-57
2024/03/01 03:58:36;;;;;;;885.92;138.05;;;;;;;0.32;100.00;94919.44;2098541;28;20048;-56
2024/03/01 03:59:37;;;;;;;1038.95;147.02;;;;;;;0.26;100.00;94914.50;2098657;28;20040;-56
2024/03/01 04:00:39;;;;;;;980.58;141.55;;;;;;;0.29;100.00;94920.38;2098708;28;20040;-57
2024/03/01 04:01:40;;;;;;;949.42;136.25;;;;;;;0.33;100.00;94924.53;2098530;28;20051;-56
2024/03/01 04:02:43;;;;;;;757.50;127.65;;;;;;;0.39;100.00;94919.25;2098213;28;20052;-56
2024/03/01 04:03:44;;;;;;;986.67;145.95;;;;;;;0.28;100.00;94918.69;2098459;28;20040;-56
2024/03/01 04:04:45;;;;;;;966.90;147.30;;;;;;;0.31;100.00;94917.78;2098317;28;20051;-56
2024/03/01 04:05:46;;;;;;;979.45;138.30;;;;;;;0.30;100.00;94914.41;2098125;28;20546;-56
2024/03/01 04:06:47;;;;;;;1044.50;151.48;;;;;;;0.31;100.00;94913.50;2098222;28;20044;-57
2024/03/01 04:07:48;;;;;;;1227.75;181.93;;;;;;;0.42;100.00;94920.91;2098586;28;20047;-56
2024/03/01 04:08:49;;;;;;;682.38;118.07;;;;;;;0.48;100.00;94915.63;2098654;28;20040;-57
2024/03/01 04:09:51;;;;;;;1051.70;166.63;;;;;;;0.50;100.00;94910.50;2097587;28;20045;-57
2024/03/01 04:10:52;;;;;;;788.13;134.52;;;;;;;0.49;100.00;94912.22;2098075;28;20040;-56
2024/03/01 04:11:54;;;;;;;733.10;123.97;;;;;;;0.49;100.00;94907.09;2098652;28;20024;-56
2024/03/01 04:12:55;;;;;;;841.90;140.35;;;;;;;0.54;100.00;94919.78;2098455;28;20421;-56
2024/03/01 04:13:56;;;;;;;640.72;119.40;;;;;;;0.58;100.00;94917.09;2098473;28;20036;-56
2024/03/01 04:14:57;;;;;;;756.78;129.57;;;;;;;0.52;100.00;94921.53;2097943;28;20044;-56
2024/03/01 04:15:59;;;;;;;627.35;118.50;;;;;;;0.53;100.00;94925.75;2098422;28;20507;-56
2024/03/01 04:17:00;;;;;;;759.13;126.53;;;;;;;0.52;100.00;94939.41;2098393;28;20044;-57
2024/03/01 04:18:02;;;;;;;856.75;135.70;;;;;;;0.46;100.00;94934.47;2098455;28;20040;-56
2024/03/01 04:19:03;;;;;;;808.17;129.35;;;;;;;0.47;100.00;94933.56;2098403;28;20032;-56
2024/03/01 04:20:05;;;;;;;975.10;139.63;;;;;;;0.34;100.00;94935.59;2098665;28;20039;-57
2024/03/01 04:21:07;;;;;;;721.33;123.00;;;;;;;0.39;100.00;94937.13;2098435;28;20408;-58
2024/03/01 04:22:09;;;;;;;1010.60;145.15;;;;;;;0.40;100.00;94930.31;2098429;28;20047;-57
2024/03/01 04:23:10;;;;;;;1077.88;157.52;;;;;;;0.42;100.00;94934.50;2098305;28;20041;-57
2024/03/01 04:24:12;;;;;;;978.25;142.00;;;;;;;0.50;100.00;94939.44;2098474;28;20135;-57
2024/03/01 04:25:13;;;;;;;691.88;123.22;;;;;;;0.57;100.00;94935.84;2098369;28;20044;-57
2024/03/01 04:26:14;;;;;;;746.50;126.32;;;;;;;0.59;100.00;94951.16;2098499;28;20028;-57
2024/03/01 04:27:15;;;;;;;695.78;125.07;;;;;;;0.60;100.00;94940.06;2098436;28;20051;-57
2024/03/01 04:28:16;;;;;;;670.45;113.10;;;;;;;0.58;100.00;94945.19;2098215;28;20420;-57
2024/03/01 04:29:17;;;;;;;568.40;109.70;;;;;;;0.54;100.00;94953.81;2097864;28;20048;-57
2024/03/01 04:30:18;;;;;;;609.42;116.30;;;;;;;0.55;100.00;94952.94;2097946;28;20059;-57
2024/03/01 04:31:20;;;;;;;709.97;114.85;;;;;;;0.61;100.00;94955.31;2098555;28;20040;-56
2024/03/01 04:32:21;;;;;;;629.55;115.25;;;;;;;0.59;100.00;94957.09;2097809;28;20056;-56
2024/03/01 04:33:23;;;;;;;702.67;127.30;;;;;;;0.62;100.00;94951.06;2098652;28;20396;-56
2024/03/01 04:34:24;;;;;;;600.78;114.18;;;;;;;0.69;100.00;94954.31;2098284;28;20047;-57
2024/03/01 04:35:25;;;;;;;806.15;133.60;;;;;;;0.69;100.00;94955.13;2098579;28;20037;-57
2024/03/01 04:36:26;;;;;;;731.13;134.75;;;;;;;0.71;100.00;94953.38;2098230;28;20158;-57
2024/03/01 04:37:27;;;;;;;626.58;115.03;;;;;;;0.74;100.00;94947.34;2097654;28;20414;-57